sensor_id;sensor_type;location;lat;lon;timestamp;pressure;altitude;pressure_sealevel;temperature;humidity
54122;BME280;40029;58.708;50.190;2023-06-10T00:01:04;99757.84;;;13.16;57.85
54122;BME280;40029;58.708;50.190;2023-06-10T00:03:36;99721.53;;;12.73;58.34
54122;BME280;40029;58.708;50.190;2023-06-10T00:06:07;99725.59;;;12.43;55.40
54122;BME280;40029;58.708;50.190;2023-06-10T00:08:38;99795.66;;;12.72;57.94
54122;BME280;40029;58.708;50.190;2023-06-10T00:11:29;99733.66;;;12.38;57.37
54122;BME280;40029;58.708;50.190;2023-06-10T00:14:00;99786.69;;;12.59;54.53
54122;BME280;40029;58.708;50.190;2023-06-10T00:16:31;99800.66;;;12.39;55.13
54122;BME280;40029;58.708;50.190;2023-06-10T00:19:04;99788.44;;;12.40;54.19
54122;BME280;40029;58.708;50.190;2023-06-10T00:21:35;99771.53;;;12.09;52.30
54122;BME280;40029;58.708;50.190;2023-06-10T00:24:11;99752.44;;;11.88;53.05
54122;BME280;40029;58.708;50.190;2023-06-10T00:26:43;99798.44;;;12.11;53.35
54122;BME280;40029;58.708;50.190;2023-06-10T00:29:15;99823.25;;;12.01;51.84
54122;BME280;40029;58.708;50.190;2023-06-10T00:31:46;99780.53;;;12.02;52.66
54122;BME280;40029;58.708;50.190;2023-06-10T00:34:17;99813.50;;;12.25;53.16
54122;BME280;40029;58.708;50.190;2023-06-10T00:36:49;99831.16;;;12.39;52.90
54122;BME280;40029;58.708;50.190;2023-06-10T00:39:21;99828.75;;;12.34;52.94
54122;BME280;40029;58.708;50.190;2023-06-10T00:41:52;99834.28;;;12.47;52.70
54122;BME280;40029;58.708;50.190;2023-06-10T00:44:23;99781.25;;;12.06;52.74
54122;BME280;40029;58.708;50.190;2023-06-10T00:46:54;99815.81;;;12.12;53.37
54122;BME280;40029;58.708;50.190;2023-06-10T00:49:27;99799.41;;;12.09;52.68
54122;BME280;40029;58.708;50.190;2023-06-10T00:51:58;99812.38;;;12.31;52.73
54122;BME280;40029;58.708;50.190;2023-06-10T00:54:30;99843.19;;;12.43;53.11
54122;BME280;40029;58.708;50.190;2023-06-10T00:57:01;99811.31;;;12.35;52.27
54122;BME280;40029;58.708;50.190;2023-06-10T00:59:33;99845.81;;;12.22;51.29
54122;BME280;40029;58.708;50.190;2023-06-10T01:02:05;99797.97;;;11.81;51.43
54122;BME280;40029;58.708;50.190;2023-06-10T01:04:36;99812.34;;;11.91;52.33
54122;BME280;40029;58.708;50.190;2023-06-10T01:07:43;99868.03;;;12.33;51.82
54122;BME280;40029;58.708;50.190;2023-06-10T01:13:07;99868.81;;;12.14;50.22
54122;BME280;40029;58.708;50.190;2023-06-10T01:15:41;99857.03;;;11.84;50.58
54122;BME280;40029;58.708;50.190;2023-06-10T01:18:12;99827.53;;;11.82;50.94
54122;BME280;40029;58.708;50.190;2023-06-10T01:20:46;99865.94;;;12.00;50.94
54122;BME280;40029;58.708;50.190;2023-06-10T01:23:19;99875.75;;;11.95;50.57
54122;BME280;40029;58.708;50.190;2023-06-10T01:26:02;99882.03;;;11.47;47.42
54122;BME280;40029;58.708;50.190;2023-06-10T01:28:40;99866.59;;;11.41;48.00
54122;BME280;40029;58.708;50.190;2023-06-10T01:33:52;99860.34;;;11.23;50.16
54122;BME280;40029;58.708;50.190;2023-06-10T01:36:24;99878.31;;;11.31;50.01
54122;BME280;40029;58.708;50.190;2023-06-10T01:38:55;99893.34;;;11.46;50.93
54122;BME280;40029;58.708;50.190;2023-06-10T01:41:28;99900.94;;;11.52;50.86
54122;BME280;40029;58.708;50.190;2023-06-10T01:43:59;99854.09;;;11.05;50.19
54122;BME280;40029;58.708;50.190;2023-06-10T01:46:31;99911.41;;;11.29;50.73
54122;BME280;40029;58.708;50.190;2023-06-10T01:49:02;99914.28;;;11.22;50.15
54122;BME280;40029;58.708;50.190;2023-06-10T01:51:33;99918.03;;;11.37;50.20
54122;BME280;40029;58.708;50.190;2023-06-10T01:54:05;99893.59;;;11.18;48.29
54122;BME280;40029;58.708;50.190;2023-06-10T01:56:36;99900.13;;;11.06;49.81
54122;BME280;40029;58.708;50.190;2023-06-10T01:59:08;99893.88;;;11.10;49.49
54122;BME280;40029;58.708;50.190;2023-06-10T02:01:39;99920.72;;;11.12;46.48
54122;BME280;40029;58.708;50.190;2023-06-10T02:04:10;99947.84;;;11.08;50.32
54122;BME280;40029;58.708;50.190;2023-06-10T02:06:42;99944.81;;;10.72;49.51
54122;BME280;40029;58.708;50.190;2023-06-10T02:09:13;99949.88;;;11.00;49.24
54122;BME280;40029;58.708;50.190;2023-06-10T02:11:44;99908.94;;;10.79;47.57
54122;BME280;40029;58.708;50.190;2023-06-10T02:14:15;99898.22;;;10.88;49.87
54122;BME280;40029;58.708;50.190;2023-06-10T02:16:47;99903.69;;;10.80;49.47
54122;BME280;40029;58.708;50.190;2023-06-10T02:19:18;99944.91;;;11.17;49.26
54122;BME280;40029;58.708;50.190;2023-06-10T02:21:52;99935.06;;;11.24;48.46
54122;BME280;40029;58.708;50.190;2023-06-10T02:24:23;99951.13;;;11.13;48.37
54122;BME280;40029;58.708;50.190;2023-06-10T02:26:55;99944.50;;;11.05;48.15
54122;BME280;40029;58.708;50.190;2023-06-10T02:29:27;99915.88;;;10.80;48.08
54122;BME280;40029;58.708;50.190;2023-06-10T02:31:58;99967.28;;;10.99;47.11
54122;BME280;40029;58.708;50.190;2023-06-10T02:34:29;99919.53;;;10.74;48.05
54122;BME280;40029;58.708;50.190;2023-06-10T02:37:02;99973.09;;;10.83;49.53
54122;BME280;40029;58.708;50.190;2023-06-10T02:39:34;99921.44;;;10.45;49.60
54122;BME280;40029;58.708;50.190;2023-06-10T02:42:10;99922.06;;;10.52;49.29
54122;BME280;40029;58.708;50.190;2023-06-10T02:44:42;99974.69;;;10.87;49.00
54122;BME280;40029;58.708;50.190;2023-06-10T02:47:17;99996.34;;;11.12;49.23
54122;BME280;40029;58.708;50.190;2023-06-10T02:49:48;99956.00;;;10.99;48.55
54122;BME280;40029;58.708;50.190;2023-06-10T02:52:20;99987.97;;;11.04;49.62
54122;BME280;40029;58.708;50.190;2023-06-10T02:54:52;99934.31;;;10.50;47.59
54122;BME280;40029;58.708;50.190;2023-06-10T02:57:23;99960.13;;;10.81;48.35
54122;BME280;40029;58.708;50.190;2023-06-10T02:59:54;99943.97;;;10.71;47.84
54122;BME280;40029;58.708;50.190;2023-06-10T03:02:25;100019.56;;;11.20;47.79
54122;BME280;40029;58.708;50.190;2023-06-10T03:05:00;100008.41;;;10.91;45.94
54122;BME280;40029;58.708;50.190;2023-06-10T03:07:31;100012.25;;;11.06;44.74
54122;BME280;40029;58.708;50.190;2023-06-10T03:10:05;100010.81;;;10.97;46.70
54122;BME280;40029;58.708;50.190;2023-06-10T03:12:38;100011.56;;;11.01;45.80
54122;BME280;40029;58.708;50.190;2023-06-10T03:15:09;100025.38;;;11.03;46.35
54122;BME280;40029;58.708;50.190;2023-06-10T03:17:41;100025.75;;;11.17;45.53
54122;BME280;40029;58.708;50.190;2023-06-10T03:20:12;99986.25;;;11.03;46.19
54122;BME280;40029;58.708;50.190;2023-06-10T03:22:47;99993.34;;;10.99;44.36
54122;BME280;40029;58.708;50.190;2023-06-10T03:25:18;100028.19;;;11.22;45.57
54122;BME280;40029;58.708;50.190;2023-06-10T03:27:55;100036.91;;;11.21;45.63
54122;BME280;40029;58.708;50.190;2023-06-10T03:30:27;100006.28;;;10.77;45.12
54122;BME280;40029;58.708;50.190;2023-06-10T03:32:59;100013.06;;;10.83;44.46
54122;BME280;40029;58.708;50.190;2023-06-10T03:35:32;100054.13;;;11.01;43.05
54122;BME280;40029;58.708;50.190;2023-06-10T03:38:06;100045.44;;;11.26;44.94
54122;BME280;40029;58.708;50.190;2023-06-10T03:40:38;100011.16;;;11.12;42.31
54122;BME280;40029;58.708;50.190;2023-06-10T03:43:11;100011.94;;;10.90;43.61
54122;BME280;40029;58.708;50.190;2023-06-10T03:45:42;100021.78;;;11.31;43.69
54122;BME280;40029;58.708;50.190;2023-06-10T03:48:14;100017.63;;;11.48;43.53
54122;BME280;40029;58.708;50.190;2023-06-10T03:50:53;100037.53;;;11.51;43.52
54122;BME280;40029;58.708;50.190;2023-06-10T03:53:25;100027.31;;;11.45;43.37
54122;BME280;40029;58.708;50.190;2023-06-10T03:55:57;100077.19;;;11.61;41.27
54122;BME280;40029;58.708;50.190;2023-06-10T03:58:30;100081.72;;;11.32;40.89
54122;BME280;40029;58.708;50.190;2023-06-10T04:01:03;100032.25;;;11.29;43.51
54122;BME280;40029;58.708;50.190;2023-06-10T04:03:39;100062.00;;;11.48;43.44
54122;BME280;40029;58.708;50.190;2023-06-10T04:06:12;100034.84;;;11.29;43.32
54122;BME280;40029;58.708;50.190;2023-06-10T04:09:01;100068.19;;;11.21;43.34
54122;BME280;40029;58.708;50.190;2023-06-10T04:11:34;100060.19;;;11.25;42.13
54122;BME280;40029;58.708;50.190;2023-06-10T04:14:05;100088.09;;;11.48;42.70
54122;BME280;40029;58.708;50.190;2023-06-10T04:16:36;100105.06;;;11.60;41.09
54122;BME280;40029;58.708;50.190;2023-06-10T04:19:10;100047.22;;;11.24;42.02
54122;BME280;40029;58.708;50.190;2023-06-10T04:21:42;100089.84;;;11.48;39.98
54122;BME280;40029;58.708;50.190;2023-06-10T04:24:14;100108.00;;;11.74;42.59
54122;BME280;40029;58.708;50.190;2023-06-10T04:26:47;100107.03;;;11.54;41.83
54122;BME280;40029;58.708;50.190;2023-06-10T04:29:19;100056.75;;;11.25;42.46
54122;BME280;40029;58.708;50.190;2023-06-10T04:31:50;100110.94;;;11.65;41.83
54122;BME280;40029;58.708;50.190;2023-06-10T04:34:22;100122.25;;;11.89;41.93
54122;BME280;40029;58.708;50.190;2023-06-10T04:36:53;100107.50;;;11.88;39.06
54122;BME280;40029;58.708;50.190;2023-06-10T04:39:25;100106.06;;;11.56;40.61
54122;BME280;40029;58.708;50.190;2023-06-10T04:41:57;100101.13;;;11.48;40.92
54122;BME280;40029;58.708;50.190;2023-06-10T04:44:47;100120.56;;;11.63;41.70
54122;BME280;40029;58.708;50.190;2023-06-10T04:47:19;100114.16;;;11.72;40.90
54122;BME280;40029;58.708;50.190;2023-06-10T04:49:51;100080.53;;;11.64;40.86
54122;BME280;40029;58.708;50.190;2023-06-10T04:52:22;100038.56;;;11.47;41.28
54122;BME280;40029;58.708;50.190;2023-06-10T04:54:54;100121.19;;;11.95;39.98
54122;BME280;40029;58.708;50.190;2023-06-10T04:57:25;100076.91;;;11.68;40.45
54122;BME280;40029;58.708;50.190;2023-06-10T04:59:57;100127.84;;;12.02;40.81
54122;BME280;40029;58.708;50.190;2023-06-10T05:02:28;100130.22;;;11.86;41.14
54122;BME280;40029;58.708;50.190;2023-06-10T05:04:59;100085.13;;;11.58;41.29
54122;BME280;40029;58.708;50.190;2023-06-10T05:07:30;100120.97;;;11.76;41.02
54122;BME280;40029;58.708;50.190;2023-06-10T05:10:02;100108.34;;;11.89;41.17
54122;BME280;40029;58.708;50.190;2023-06-10T05:12:35;100095.13;;;11.70;41.43
54122;BME280;40029;58.708;50.190;2023-06-10T05:15:07;100121.16;;;11.48;40.88
54122;BME280;40029;58.708;50.190;2023-06-10T05:17:38;100095.66;;;11.55;40.30
54122;BME280;40029;58.708;50.190;2023-06-10T05:20:10;100096.69;;;11.74;40.68
54122;BME280;40029;58.708;50.190;2023-06-10T05:22:41;100131.84;;;11.89;41.08
54122;BME280;40029;58.708;50.190;2023-06-10T05:25:13;100101.44;;;11.88;41.06
54122;BME280;40029;58.708;50.190;2023-06-10T05:27:44;100150.09;;;11.90;40.84
54122;BME280;40029;58.708;50.190;2023-06-10T05:30:15;100157.63;;;11.98;41.29
54122;BME280;40029;58.708;50.190;2023-06-10T05:32:49;100148.22;;;11.94;41.03
54122;BME280;40029;58.708;50.190;2023-06-10T05:35:22;100159.78;;;11.62;39.97
54122;BME280;40029;58.708;50.190;2023-06-10T05:37:53;100161.28;;;11.69;41.24
54122;BME280;40029;58.708;50.190;2023-06-10T05:40:24;100128.81;;;11.52;41.41
54122;BME280;40029;58.708;50.190;2023-06-10T05:42:55;100142.38;;;11.62;41.34
54122;BME280;40029;58.708;50.190;2023-06-10T05:45:27;100178.84;;;11.89;41.40
54122;BME280;40029;58.708;50.190;2023-06-10T05:47:58;100172.84;;;11.87;41.33
54122;BME280;40029;58.708;50.190;2023-06-10T05:50:29;100168.19;;;11.70;39.00
54122;BME280;40029;58.708;50.190;2023-06-10T05:53:19;100178.38;;;12.01;41.02
54122;BME280;40029;58.708;50.190;2023-06-10T05:55:50;100143.22;;;11.63;40.69
54122;BME280;40029;58.708;50.190;2023-06-10T05:58:24;100193.78;;;11.85;40.05
54122;BME280;40029;58.708;50.190;2023-06-10T06:00:55;100188.28;;;11.93;37.95
54122;BME280;40029;58.708;50.190;2023-06-10T06:03:26;100190.25;;;12.10;38.31
54122;BME280;40029;58.708;50.190;2023-06-10T06:05:59;100171.31;;;11.80;37.01
54122;BME280;40029;58.708;50.190;2023-06-10T06:08:30;100187.16;;;12.00;38.85
54122;BME280;40029;58.708;50.190;2023-06-10T06:11:01;100142.47;;;11.84;38.43
54122;BME280;40029;58.708;50.190;2023-06-10T06:13:32;100184.34;;;12.05;38.68
54122;BME280;40029;58.708;50.190;2023-06-10T06:16:04;100206.28;;;12.24;38.01
54122;BME280;40029;58.708;50.190;2023-06-10T06:18:35;100127.78;;;11.80;37.84
54122;BME280;40029;58.708;50.190;2023-06-10T06:21:06;100158.25;;;12.05;37.64
54122;BME280;40029;58.708;50.190;2023-06-10T06:23:37;100203.81;;;12.43;37.91
54122;BME280;40029;58.708;50.190;2023-06-10T06:26:09;100204.47;;;12.48;37.42
54122;BME280;40029;58.708;50.190;2023-06-10T06:28:40;100144.34;;;12.26;36.57
54122;BME280;40029;58.708;50.190;2023-06-10T06:31:11;100203.44;;;12.52;37.79
54122;BME280;40029;58.708;50.190;2023-06-10T06:33:42;100202.28;;;12.37;36.12
54122;BME280;40029;58.708;50.190;2023-06-10T06:36:13;100192.38;;;12.45;37.10
54122;BME280;40029;58.708;50.190;2023-06-10T06:38:44;100132.69;;;12.35;38.00
54122;BME280;40029;58.708;50.190;2023-06-10T06:41:16;100204.66;;;13.09;37.60
54122;BME280;40029;58.708;50.190;2023-06-10T06:43:47;100202.91;;;13.08;37.54
54122;BME280;40029;58.708;50.190;2023-06-10T06:46:41;100167.47;;;13.23;36.85
54122;BME280;40029;58.708;50.190;2023-06-10T06:49:14;100201.22;;;13.49;36.70
54122;BME280;40029;58.708;50.190;2023-06-10T06:51:45;100132.31;;;12.88;36.56
54122;BME280;40029;58.708;50.190;2023-06-10T06:54:16;100170.09;;;13.01;36.54
54122;BME280;40029;58.708;50.190;2023-06-10T06:56:47;100177.13;;;12.79;35.35
54122;BME280;40029;58.708;50.190;2023-06-10T06:59:18;100211.25;;;13.18;36.05
54122;BME280;40029;58.708;50.190;2023-06-10T07:01:53;100204.19;;;13.20;35.83
54122;BME280;40029;58.708;50.190;2023-06-10T07:04:27;100208.69;;;13.16;34.89
54122;BME280;40029;58.708;50.190;2023-06-10T07:06:58;100173.44;;;13.05;36.21
54122;BME280;40029;58.708;50.190;2023-06-10T07:09:29;100213.44;;;13.29;36.30
54122;BME280;40029;58.708;50.190;2023-06-10T07:12:00;100220.00;;;13.39;35.79
54122;BME280;40029;58.708;50.190;2023-06-10T07:14:32;100169.25;;;13.21;35.31
54122;BME280;40029;58.708;50.190;2023-06-10T07:17:03;100229.03;;;13.72;35.33
54122;BME280;40029;58.708;50.190;2023-06-10T07:19:34;100195.25;;;13.66;35.28
54122;BME280;40029;58.708;50.190;2023-06-10T07:22:05;100226.63;;;14.07;34.26
54122;BME280;40029;58.708;50.190;2023-06-10T07:24:37;100172.28;;;13.73;34.06
54122;BME280;40029;58.708;50.190;2023-06-10T07:27:08;100223.16;;;14.07;34.12
54122;BME280;40029;58.708;50.190;2023-06-10T07:29:59;100234.44;;;14.28;32.78
54122;BME280;40029;58.708;50.190;2023-06-10T07:32:32;100188.63;;;13.97;33.29
54122;BME280;40029;58.708;50.190;2023-06-10T07:35:03;100234.28;;;14.12;33.21
54122;BME280;40029;58.708;50.190;2023-06-10T07:37:35;100228.09;;;13.94;33.31
54122;BME280;40029;58.708;50.190;2023-06-10T07:40:06;100239.44;;;14.13;33.15
54122;BME280;40029;58.708;50.190;2023-06-10T07:42:37;100233.00;;;14.20;32.81
54122;BME280;40029;58.708;50.190;2023-06-10T07:45:09;100210.69;;;14.12;33.01
54122;BME280;40029;58.708;50.190;2023-06-10T07:47:40;100193.78;;;13.80;32.45
54122;BME280;40029;58.708;50.190;2023-06-10T07:50:11;100209.69;;;14.14;31.76
54122;BME280;40029;58.708;50.190;2023-06-10T07:52:43;100239.09;;;14.02;30.15
54122;BME280;40029;58.708;50.190;2023-06-10T07:55:14;100240.88;;;13.61;31.41
54122;BME280;40029;58.708;50.190;2023-06-10T07:57:45;100254.31;;;13.73;31.49
54122;BME280;40029;58.708;50.190;2023-06-10T08:00:17;100191.66;;;13.48;31.62
54122;BME280;40029;58.708;50.190;2023-06-10T08:02:49;100239.88;;;13.84;31.52
54122;BME280;40029;58.708;50.190;2023-06-10T08:05:21;100207.91;;;13.96;31.88
54122;BME280;40029;58.708;50.190;2023-06-10T08:07:52;100257.63;;;14.56;31.46
54122;BME280;40029;58.708;50.190;2023-06-10T08:10:23;100220.84;;;14.57;31.31
54122;BME280;40029;58.708;50.190;2023-06-10T08:12:55;100248.91;;;14.74;30.74
54122;BME280;40029;58.708;50.190;2023-06-10T08:15:26;100223.34;;;14.78;30.34
54122;BME280;40029;58.708;50.190;2023-06-10T08:17:57;100216.06;;;14.84;30.34
54122;BME280;40029;58.708;50.190;2023-06-10T08:20:29;100237.81;;;15.04;30.54
54122;BME280;40029;58.708;50.190;2023-06-10T08:23:00;100197.47;;;14.89;30.29
54122;BME280;40029;58.708;50.190;2023-06-10T08:25:31;100230.84;;;15.04;29.90
54122;BME280;40029;58.708;50.190;2023-06-10T08:28:03;100219.63;;;15.00;28.95
54122;BME280;40029;58.708;50.190;2023-06-10T08:30:52;100237.19;;;15.17;29.02
54122;BME280;40029;58.708;50.190;2023-06-10T08:33:24;100201.56;;;15.12;28.41
54122;BME280;40029;58.708;50.190;2023-06-10T08:35:55;100225.28;;;15.45;28.70
54122;BME280;40029;58.708;50.190;2023-06-10T08:38:26;100261.31;;;15.24;28.66
54122;BME280;40029;58.708;50.190;2023-06-10T08:40:59;100209.63;;;14.72;28.72
54122;BME280;40029;58.708;50.190;2023-06-10T08:43:37;100227.91;;;14.36;28.94
54122;BME280;40029;58.708;50.190;2023-06-10T08:46:09;100279.19;;;14.23;31.27
54122;BME280;40029;58.708;50.190;2023-06-10T08:48:44;100257.03;;;13.91;33.48
54122;BME280;40029;58.708;50.190;2023-06-10T08:51:17;100267.75;;;13.85;34.06
54122;BME280;40029;58.708;50.190;2023-06-10T08:53:54;100256.38;;;13.86;34.30
54122;BME280;40029;58.708;50.190;2023-06-10T08:56:29;100224.38;;;13.79;35.52
54122;BME280;40029;58.708;50.190;2023-06-10T08:59:02;100227.38;;;14.09;34.97
54122;BME280;40029;58.708;50.190;2023-06-10T09:01:33;100228.19;;;14.30;34.40
54122;BME280;40029;58.708;50.190;2023-06-10T09:04:05;100219.56;;;14.28;33.44
54122;BME280;40029;58.708;50.190;2023-06-10T09:06:56;100225.13;;;14.39;33.53
54122;BME280;40029;58.708;50.190;2023-06-10T09:09:28;100248.91;;;14.55;33.41
54122;BME280;40029;58.708;50.190;2023-06-10T09:12:01;100269.28;;;14.86;32.46
54122;BME280;40029;58.708;50.190;2023-06-10T09:14:32;100233.75;;;14.98;31.66
54122;BME280;40029;58.708;50.190;2023-06-10T09:17:05;100214.44;;;15.16;30.15
54122;BME280;40029;58.708;50.190;2023-06-10T09:19:38;100267.69;;;15.89;28.55
54122;BME280;40029;58.708;50.190;2023-06-10T09:22:12;100274.28;;;15.81;28.60
54122;BME280;40029;58.708;50.190;2023-06-10T09:24:43;100251.69;;;13.53;33.55
54122;BME280;40029;58.708;50.190;2023-06-10T09:27:15;100303.25;;;13.07;37.48
54122;BME280;40029;58.708;50.190;2023-06-10T09:29:48;100312.97;;;12.82;38.10
54122;BME280;40029;58.708;50.190;2023-06-10T09:32:21;100279.19;;;12.54;39.36
54122;BME280;40029;58.708;50.190;2023-06-10T09:34:53;100281.28;;;12.44;39.95
54122;BME280;40029;58.708;50.190;2023-06-10T09:37:24;100257.72;;;12.22;41.33
54122;BME280;40029;58.708;50.190;2023-06-10T09:40:03;100323.75;;;12.50;42.58
54122;BME280;40029;58.708;50.190;2023-06-10T09:42:38;100288.63;;;12.34;42.42
54122;BME280;40029;58.708;50.190;2023-06-10T09:45:09;100318.94;;;12.85;42.21
54122;BME280;40029;58.708;50.190;2023-06-10T09:47:41;100301.59;;;12.83;41.87
54122;BME280;40029;58.708;50.190;2023-06-10T09:50:12;100281.09;;;12.94;40.83
54122;BME280;40029;58.708;50.190;2023-06-10T09:52:45;100297.16;;;13.30;39.67
54122;BME280;40029;58.708;50.190;2023-06-10T09:55:17;100321.50;;;13.53;38.85
54122;BME280;40029;58.708;50.190;2023-06-10T09:57:53;100272.41;;;13.37;37.53
54122;BME280;40029;58.708;50.190;2023-06-10T10:00:25;100314.56;;;13.72;37.78
54122;BME280;40029;58.708;50.190;2023-06-10T10:02:57;100332.16;;;13.90;37.25
54122;BME280;40029;58.708;50.190;2023-06-10T10:05:28;100325.53;;;13.82;36.20
54122;BME280;40029;58.708;50.190;2023-06-10T10:08:00;100311.91;;;13.94;36.17
54122;BME280;40029;58.708;50.190;2023-06-10T10:10:31;100322.88;;;14.22;35.91
54122;BME280;40029;58.708;50.190;2023-06-10T10:13:03;100311.28;;;14.48;34.04
54122;BME280;40029;58.708;50.190;2023-06-10T10:15:34;100306.13;;;14.66;33.11
54122;BME280;40029;58.708;50.190;2023-06-10T10:18:10;100285.25;;;14.82;33.35
54122;BME280;40029;58.708;50.190;2023-06-10T10:20:47;100274.22;;;14.75;33.17
54122;BME280;40029;58.708;50.190;2023-06-10T10:24:17;100320.13;;;14.84;32.12
54122;BME280;40029;58.708;50.190;2023-06-10T10:26:29;100335.66;;;14.50;31.92
54122;BME280;40029;58.708;50.190;2023-06-10T10:29:20;100331.00;;;14.37;29.85
54122;BME280;40029;58.708;50.190;2023-06-10T10:31:55;100340.88;;;14.30;31.05
54122;BME280;40029;58.708;50.190;2023-06-10T10:34:49;100359.00;;;14.36;30.73
54122;BME280;40029;58.708;50.190;2023-06-10T10:37:24;100323.28;;;13.93;28.62
54122;BME280;40029;58.708;50.190;2023-06-10T10:39:55;100354.94;;;13.88;30.22
54122;BME280;40029;58.708;50.190;2023-06-10T10:42:28;100328.09;;;14.04;30.98
54122;BME280;40029;58.708;50.190;2023-06-10T10:45:00;100301.06;;;14.22;30.61
54122;BME280;40029;58.708;50.190;2023-06-10T10:47:53;100349.25;;;14.59;28.57
54122;BME280;40029;58.708;50.190;2023-06-10T10:50:29;100335.31;;;14.77;29.10
54122;BME280;40029;58.708;50.190;2023-06-10T10:53:03;100342.16;;;15.17;29.55
54122;BME280;40029;58.708;50.190;2023-06-10T10:55:35;100338.78;;;15.33;28.88
54122;BME280;40029;58.708;50.190;2023-06-10T10:58:07;100335.22;;;15.70;27.49
54122;BME280;40029;58.708;50.190;2023-06-10T11:00:44;100333.16;;;15.77;27.04
54122;BME280;40029;58.708;50.190;2023-06-10T11:03:42;100323.31;;;16.15;26.88
54122;BME280;40029;58.708;50.190;2023-06-10T11:06:16;100299.19;;;16.40;25.85
54122;BME280;40029;58.708;50.190;2023-06-10T11:08:49;100305.38;;;16.88;25.63
54122;BME280;40029;58.708;50.190;2023-06-10T11:11:25;100312.34;;;17.05;24.52
54122;BME280;40029;58.708;50.190;2023-06-10T11:16:40;100275.91;;;16.65;24.53
54122;BME280;40029;58.708;50.190;2023-06-10T11:19:37;100319.13;;;17.09;24.35
54122;BME280;40029;58.708;50.190;2023-06-10T11:22:17;100334.16;;;16.75;24.62
54122;BME280;40029;58.708;50.190;2023-06-10T11:24:50;100284.88;;;16.12;24.47
54122;BME280;40029;58.708;50.190;2023-06-10T11:27:23;100326.44;;;16.06;25.20
54122;BME280;40029;58.708;50.190;2023-06-10T11:30:20;100309.19;;;15.65;25.16
54122;BME280;40029;58.708;50.190;2023-06-10T11:32:52;100308.16;;;15.50;25.45
54122;BME280;40029;58.708;50.190;2023-06-10T11:35:24;100336.88;;;15.72;25.60
54122;BME280;40029;58.708;50.190;2023-06-10T11:37:55;100324.47;;;15.92;25.82
54122;BME280;40029;58.708;50.190;2023-06-10T11:40:27;100337.03;;;17.02;24.67
54122;BME280;40029;58.708;50.190;2023-06-10T11:43:01;100345.84;;;17.33;23.49
54122;BME280;40029;58.708;50.190;2023-06-10T11:45:33;100259.31;;;17.11;22.86
54122;BME280;40029;58.708;50.190;2023-06-10T11:48:05;100337.69;;;17.83;21.83
54122;BME280;40029;58.708;50.190;2023-06-10T11:50:37;100279.41;;;17.88;20.26
54122;BME280;40029;58.708;50.190;2023-06-10T11:53:26;100320.97;;;18.84;18.67
54122;BME280;40029;58.708;50.190;2023-06-10T11:55:58;100267.94;;;18.03;18.80
54122;BME280;40029;58.708;50.190;2023-06-10T11:58:29;100293.56;;;18.30;18.72
54122;BME280;40029;58.708;50.190;2023-06-10T12:01:01;100316.81;;;17.03;19.53
54122;BME280;40029;58.708;50.190;2023-06-10T12:03:36;100351.25;;;16.99;19.63
54122;BME280;40029;58.708;50.190;2023-06-10T12:06:08;100323.72;;;16.40;20.53
54122;BME280;40029;58.708;50.190;2023-06-10T12:08:43;100341.38;;;16.54;21.41
54122;BME280;40029;58.708;50.190;2023-06-10T12:11:14;100362.13;;;16.43;21.74
54122;BME280;40029;58.708;50.190;2023-06-10T12:13:49;100357.38;;;16.34;21.13
54122;BME280;40029;58.708;50.190;2023-06-10T12:16:22;100357.78;;;17.54;20.04
54122;BME280;40029;58.708;50.190;2023-06-10T12:19:01;100350.47;;;18.34;17.74
54122;BME280;40029;58.708;50.190;2023-06-10T12:21:36;100333.06;;;19.15;18.01
54122;BME280;40029;58.708;50.190;2023-06-10T12:24:09;100343.81;;;20.32;15.70
54122;BME280;40029;58.708;50.190;2023-06-10T12:26:44;100331.94;;;19.99;15.10
54122;BME280;40029;58.708;50.190;2023-06-10T12:29:23;100359.16;;;20.65;13.96
54122;BME280;40029;58.708;50.190;2023-06-10T12:32:03;100336.16;;;19.89;13.23
54122;BME280;40029;58.708;50.190;2023-06-10T12:34:39;100347.19;;;19.29;14.26
54122;BME280;40029;58.708;50.190;2023-06-10T12:37:12;100328.06;;;17.52;16.03
54122;BME280;40029;58.708;50.190;2023-06-10T12:39:51;100363.00;;;18.30;16.48
54122;BME280;40029;58.708;50.190;2023-06-10T12:42:27;100325.97;;;18.46;16.70
54122;BME280;40029;58.708;50.190;2023-06-10T12:45:27;100368.41;;;19.54;15.80
54122;BME280;40029;58.708;50.190;2023-06-10T12:48:11;100290.25;;;19.90;14.33
54122;BME280;40029;58.708;50.190;2023-06-10T12:50:44;100298.69;;;20.46;13.54
54122;BME280;40029;58.708;50.190;2023-06-10T12:53:16;100323.50;;;20.94;12.65
54122;BME280;40029;58.708;50.190;2023-06-10T12:55:47;100284.66;;;20.82;12.45
54122;BME280;40029;58.708;50.190;2023-06-10T12:58:22;100332.13;;;21.09;12.95
54122;BME280;40029;58.708;50.190;2023-06-10T13:00:54;100299.59;;;21.55;12.68
54122;BME280;40029;58.708;50.190;2023-06-10T13:03:25;100333.13;;;21.32;12.94
54122;BME280;40029;58.708;50.190;2023-06-10T13:05:57;100346.91;;;21.25;13.17
54122;BME280;40029;58.708;50.190;2023-06-10T13:08:28;100308.97;;;20.25;12.26
54122;BME280;40029;58.708;50.190;2023-06-10T13:10:59;100342.91;;;19.67;12.48
54122;BME280;40029;58.708;50.190;2023-06-10T13:13:31;100341.78;;;19.84;12.17
54122;BME280;40029;58.708;50.190;2023-06-10T13:16:02;100305.53;;;19.59;12.52
54122;BME280;40029;58.708;50.190;2023-06-10T13:18:53;100337.38;;;20.49;11.60
54122;BME280;40029;58.708;50.190;2023-06-10T13:21:24;100324.31;;;20.58;11.49
54122;BME280;40029;58.708;50.190;2023-06-10T13:23:56;100347.63;;;20.40;11.60